»·PEaware :: N2997P KMHV-KSBP

N2997P :: KMHV-KSBP

FLIGHT INFORMATION

Flight Status: Arrived
Operator: Privately registered:
United States
More flights under this callsign
Pilot: John D. (31622)
Aircraft: BEECH AIRCRAFT BARON
(BE58)
More flights by this aircraft type
Origin: KMHV Mojave
United States
Destination: KSBP San Luis Co Regl
United States
More flights between these airports :: More routes between these airports
Route:
File this flight plan on PilotEdge
Remarks:
Altitude:
(Current/Filed)
8,500ft
Speed:
(Current/Filed)
150kts
Departed: 23-Oct-20 07:40 PM
Arrived: 23-Oct-20 08:30 PM
Distance/Time
Traveled:
122nm/0:50
Distance/Time
To Go:
Arrived

Flight Plot

Page will automatically refresh every two minutes.

Flight plan parsing failed; only flown route is shown


Map Options




Map Legend


Flown Route
Filed Route
Departure Airport
Arrival Airport
Navaid (VOR, NDB)
Fix

Horizontal Profiles

Position Reports

Time Latitude Longitude Heading Altitude Ground
Speed
23-Oct-20 19:31 35.057147 -118.158408 88 2764ft 0kts
23-Oct-20 19:32 35.057147 -118.158408 88 2764ft 0kts
23-Oct-20 19:33 35.057147 -118.158408 88 2764ft 0kts
23-Oct-20 19:34 35.057147 -118.158408 88 2764ft 0kts
23-Oct-20 19:36 35.057147 -118.158408 88 2764ft 0kts
23-Oct-20 19:37 35.057220 -118.156924 78 2762ft 21kts
23-Oct-20 19:38 35.057579 -118.145252 90 2736ft 28kts
23-Oct-20 19:39 35.058255 -118.142629 1 2731ft 0kts
23-Oct-20 19:40 35.059140 -118.151492 271 2756ft 107kts
23-Oct-20 19:41 35.058789 -118.194705 272 4261ft 121kts
23-Oct-20 19:42 35.061613 -118.237722 278 5692ft 126kts
23-Oct-20 19:43 35.069398 -118.281991 277 6808ft 133kts
23-Oct-20 19:44 35.075628 -118.328444 278 7678ft 142kts
23-Oct-20 19:45 35.079800 -118.377061 275 8430ft 144kts
23-Oct-20 19:46 35.081157 -118.429957 272 8601ft 165kts
23-Oct-20 19:47 35.084265 -118.488166 276 8580ft 168kts
23-Oct-20 19:48 35.088786 -118.547443 276 8579ft 168kts
23-Oct-20 19:49 35.093531 -118.607560 276 8570ft 168kts
23-Oct-20 19:50 35.098182 -118.666583 276 8560ft 168kts
23-Oct-20 19:51 35.102652 -118.723631 276 8590ft 167kts
23-Oct-20 19:51 35.106344 -118.770966 276 8579ft 168kts
23-Oct-20 19:53 35.111532 -118.837852 276 8556ft 169kts
23-Oct-20 19:53 35.115213 -118.885634 275 8540ft 170kts
23-Oct-20 19:55 35.120379 -118.953138 275 8519ft 171kts
23-Oct-20 19:55 35.124073 -119.001727 275 8505ft 173kts
23-Oct-20 19:57 35.129255 -119.070370 275 8495ft 174kts
23-Oct-20 19:57 35.132916 -119.119162 275 8494ft 174kts
23-Oct-20 19:58 35.136639 -119.169084 275 8485ft 173kts
23-Oct-20 19:59 35.140979 -119.227574 275 8493ft 173kts
23-Oct-20 20:00 35.145306 -119.286276 275 8494ft 173kts
23-Oct-20 20:02 35.150322 -119.354829 275 8493ft 173kts
23-Oct-20 20:02 35.153867 -119.403600 275 8493ft 173kts
23-Oct-20 20:03 35.158241 -119.464141 275 8452ft 175kts
23-Oct-20 20:04 35.162470 -119.523117 275 8445ft 173kts
23-Oct-20 20:05 35.166578 -119.580821 275 8504ft 166kts
23-Oct-20 20:06 35.170678 -119.638643 275 8488ft 171kts
23-Oct-20 20:07 35.174764 -119.697049 274 8492ft 172kts
23-Oct-20 20:08 35.178184 -119.752942 271 9014ft 156kts
23-Oct-20 20:09 35.186989 -119.804607 276 10144ft 126kts
23-Oct-20 20:10 35.192266 -119.854911 275 10533ft 154kts
23-Oct-20 20:11 35.195626 -119.912360 271 10391ft 173kts
23-Oct-20 20:12 35.199037 -119.970688 277 10446ft 171kts
23-Oct-20 20:13 35.206656 -120.030561 278 10480ft 169kts
23-Oct-20 20:14 35.214379 -120.091049 278 10489ft 169kts
23-Oct-20 20:15 35.222207 -120.152119 278 10491ft 169kts
23-Oct-20 20:16 35.230149 -120.213713 278 10490ft 169kts
23-Oct-20 20:17 35.216118 -120.271407 260 10554ft 163kts
23-Oct-20 20:18 35.217620 -120.332630 273 10522ft 166kts
23-Oct-20 20:19 35.221596 -120.394382 273 10263ft 170kts
23-Oct-20 20:20 35.225332 -120.452840 273 9301ft 143kts
23-Oct-20 20:21 35.228570 -120.503734 277 7817ft 144kts
23-Oct-20 20:22 35.235303 -120.552230 278 5574ft 150kts
23-Oct-20 20:23 35.234341 -120.602611 243 3079ft 128kts
23-Oct-20 20:24 35.234460 -120.635529 295 868ft 105kts
23-Oct-20 20:25 35.244962 -120.671492 230 1032ft 125kts
23-Oct-20 20:26 35.215997 -120.662048 121 1423ft 127kts
23-Oct-20 20:27 35.200212 -120.629490 93 1326ft 95kts
23-Oct-20 20:28 35.222411 -120.618083 317 654ft 88kts
23-Oct-20 20:29 35.236669 -120.639786 297 216ft 35kts
23-Oct-20 20:30 35.237778 -120.640167 91 216ft 6kts
23-Oct-20 20:31 35.234709 -120.634519 125 216ft 22kts
23-Oct-20 20:32 35.233879 -120.632315 354 216ft 3kts
23-Oct-20 20:33 35.234249 -120.632761 179 216ft 0kts
23-Oct-20 20:34 35.234249 -120.632761 179 216ft 0kts
23-Oct-20 20:35 35.234249 -120.632761 179 216ft 0kts

Navigation Log

Ident Type
Flight plan parsing failed, navigation log unavailable